• Join FlightAware (Why Join?)
  • Login
  • US Flag 
 
03:53AM EST


 

Airport Tracker/Info


-or-


 

Live Flight TrackerFlight Track Log ✈ UAL109 ✈ 06-Apr-2013 ✈ KTPA - KEWR

Flight Track Log - Related Links

Times and Time Zones

All times are in EDT time to prevent confusion due to time zone crossing. See the UAL109 flight status page for this flight to view local times or setup timezone preferences in your user account.

Time Position Orientation Groundspeed Altitude Reporting Facility
EDT Latitude Longitude Course Direction KTS MPH feet Rate Location/Type
08:35PM 28.0220 -82.5290 355° North 199 229 1,700  Level FlightAware
08:35PM 28.0480 -82.5320 354° North 224 258 2,600 2,400 Climbing FlightAware
08:36PM 28.0820 -82.5350 356° North 249 287 3,900 2,580 Climbing FlightAware
08:36PM 28.1170 -82.5380 356° North 269 310 5,200 2,700 Climbing FlightAware
08:37PM 28.1500 -82.5410 355° North 279 321 6,400 3,000 Climbing FlightAware
08:37PM 28.1880 -82.5440 356° North 284 327 8,000 3,240 Climbing FlightAware
08:38PM 28.2210 -82.5480 354° North 283 326 9,400 2,280 Climbing FlightAware
08:38PM 28.2840 -82.5530 356° North 323 372 10,700 1,740 Climbing FlightAware
08:39PM 28.3470 -82.5580 356° North 355 409 11,900 2,220 Climbing FlightAware
08:40PM 28.4200 -82.5630 357° North 364 419 13,900 2,580 Climbing FlightAware
08:40PM 28.4940 -82.5690 356° North 375 432 15,600 2,460 Climbing FlightAware
08:41PM 28.5600 -82.5740 356° North 384 442 17,200 2,400 Climbing FlightAware
08:42PM 28.6410 -82.5810 356° North 393 452 19,000 2,460 Climbing FlightAware
08:43PM 28.7190 -82.5870 356° North 398 458 20,700 2,280 Climbing FlightAware
08:43PM 28.7890 -82.5920 356° North 401 461 22,100 2,040 Climbing FlightAware
08:44PM 28.8740 -82.5990 356° North 409 471 23,600 1,800 Climbing FlightAware
08:45PM 28.9490 -82.6050 356° North 417 480 24,700 1,560 Climbing FlightAware
08:45PM 29.0190 -82.6110 356° North 424 488 25,600 1,440 Climbing FlightAware
08:46PM 29.1130 -82.6180 356° North 420 483 26,800 1,440 Climbing FlightAware
08:47PM 29.2000 -82.6250 356° North 432 497 27,800 1,320 Climbing FlightAware
08:47PM 29.2920 -82.6320 356° North 448 516 28,700 720 Climbing FlightAware
08:48PM 29.3520 -82.6370 356° North 449 517 28,800 60 Climbing FlightAware
08:49PM 29.4220 -82.6430 356° North 449 517 28,800  Level FlightAware
08:50PM 29.5100 -82.6500 356° North 449 517 28,800  Level FlightAware
08:50PM 29.5810 -82.6560 356° North 449 517 28,800  Level FlightAware
08:51PM 29.6510 -82.6610 356° North 449 517 28,800  Level FlightAware
08:52PM 29.7220 -82.6670 356° North 449 517 28,800 1,980 Level FlightAware
08:54PM 30.1010 -82.6920 357° North 457 526 35,000 2,400 Climbing FlightAware
08:54PM 30.0510 -82.6890 177° South 457 526 35,000  Level FlightAware
08:55PM 29.9650 -82.6820 176° South 457 526 35,000  Level FlightAware
08:55PM 30.0510 -82.6890 356° North 461 531 35,000  Level FlightAware
08:56PM 30.3680 -82.6910 360° North 461 531 35,000  Level FlightAware
08:57PM 30.4400 -82.6960 357° North 461 531 35,000  Level FlightAware
08:57PM 30.5130 -82.7000 357° North 461 531 35,000  Level FlightAware
08:58PM 30.5850 -82.7050 357° North 461 531 35,000  Level FlightAware
08:59PM 30.6760 -82.7100 357° North 461 531 35,000  Level FlightAware
09:00PM 30.7480 -82.7140 357° North 461 531 35,000  Level FlightAware
09:00PM 30.8210 -82.7190 357° North 461 531 35,000  Level FlightAware
09:01PM 30.8930 -82.7230 357° North 461 531 35,000  Level FlightAware
09:02PM 30.9650 -82.7280 357° North 461 531 35,000  Level FlightAware
09:02PM 31.0560 -82.7330 357° North 461 531 35,000  Level FlightAware
09:03PM 31.1280 -82.7380 357° North 461 531 35,000  Level FlightAware
09:04PM 31.2010 -82.7420 357° North 461 531 35,000  Level FlightAware
09:04PM 31.2730 -82.7470 357° North 461 531 35,000  Level FlightAware
09:05PM 31.3640 -82.7520 357° North 461 531 35,000  Level FlightAware
09:10PM 32.0750 -81.9190 45° Northeast 481 554 35,000  Level FlightAware
09:11PM 32.2840 -81.8200 22° Northeast 481 554 35,000  Level FlightAware
09:12PM 32.3690 -81.7800 22° Northeast 479 551 35,000  Level FlightAware
09:13PM 32.4590 -81.7360 22° Northeast 478 550 35,000  Level FlightAware
09:13PM 32.5230 -81.7050 22° Northeast 478 550 35,000  Level FlightAware
09:15PM 32.7100 -81.6150 22° Northeast 478 550 35,000  Level FlightAware
09:16PM 32.7800 -81.5610 33° Northeast 486 559 35,000  Level FlightAware
09:16PM 32.8700 -81.4950 32° Northeast 478 550 35,000  Level FlightAware
09:17PM 32.9510 -81.4350 32° Northeast 487 560 35,000  Level FlightAware
09:18PM 33.0300 -81.3760 32° Northeast 486 559 35,000  Level FlightAware
09:18PM 33.1140 -81.3150 31° Northeast 487 560 35,000  Level FlightAware
09:19PM 33.1920 -81.2560 32° Northeast 488 562 35,000  Level FlightAware
09:20PM 33.2780 -81.1930 31° Northeast 488 562 35,000  Level FlightAware
09:21PM 33.3530 -81.1370 32° Northeast 488 562 35,000  Level FlightAware
09:21PM 33.4400 -81.0720 32° Northeast 488 562 35,000  Level FlightAware
09:22PM 33.5170 -81.0140 32° Northeast 489 563 35,000  Level FlightAware
09:23PM 33.5940 -80.9570 32° Northeast 490 564 35,000  Level FlightAware
09:23PM 33.6800 -80.8920 32° Northeast 490 564 35,000  Level FlightAware
09:24PM 33.7580 -80.8330 32° Northeast 492 566 35,000  Level FlightAware
09:25PM 33.8410 -80.7710 32° Northeast 492 566 35,000  Level FlightAware
09:25PM 33.9090 -80.7190 32° Northeast 493 567 35,000  Level FlightAware
09:26PM 34.0040 -80.6480 32° Northeast 494 568 35,000  Level FlightAware
09:27PM 34.0770 -80.5920 32° Northeast 494 568 35,000  Level FlightAware
09:28PM 34.1620 -80.5270 32° Northeast 492 566 35,000  Level FlightAware
09:28PM 34.2380 -80.4690 32° Northeast 492 566 35,000  Level FlightAware
09:29PM 34.3160 -80.4100 32° Northeast 491 565 35,000  Level FlightAware
09:30PM 34.4110 -80.3370 32° Northeast 491 565 35,000  Level FlightAware
09:30PM 34.4790 -80.2840 33° Northeast 492 566 35,000  Level FlightAware
09:31PM 34.5510 -80.2300 32° Northeast 492 566 35,000  Level FlightAware
09:32PM 34.6160 -80.1800 32° Northeast 492 566 35,000  Level FlightAware
09:32PM 34.6820 -80.1300 32° Northeast 492 566 35,000  Level FlightAware
09:33PM 34.7480 -80.0800 32° Northeast 492 566 35,000  Level FlightAware
09:34PM 34.8300 -80.0180 32° Northeast 492 566 35,000  Level FlightAware
09:35PM 34.8950 -79.9680 32° Northeast 492 566 35,000  Level FlightAware
09:35PM 34.9610 -79.9180 32° Northeast 492 566 35,000  Level FlightAware
09:36PM 35.0270 -79.8680 32° Northeast 492 566 35,000  Level FlightAware
09:37PM 35.1090 -79.8050 32° Northeast 492 566 35,000  Level FlightAware
09:37PM 35.1740 -79.7550 32° Northeast 492 566 35,000  Level FlightAware
09:38PM 35.2400 -79.7050 32° Northeast 492 566 35,000  Level FlightAware
09:39PM 35.3050 -79.6540 33° Northeast 492 566 35,000  Level FlightAware
09:39PM 35.5340 -79.4600 35° Northeast 484 557 35,000  Level FlightAware
09:40PM 35.6160 -79.3960 32° Northeast 482 555 35,000  Level FlightAware
09:41PM 35.6860 -79.3400 33° Northeast 482 555 35,000  Level FlightAware
09:42PM 35.7670 -79.2750 33° Northeast 484 557 35,000  Level FlightAware
09:42PM 35.8530 -79.2060 33° Northeast 486 559 35,000  Level FlightAware
09:43PM 35.9240 -79.1490 33° Northeast 487 560 35,000  Level FlightAware
09:44PM 36.0100 -79.0800 33° Northeast 488 562 35,000  Level FlightAware
09:44PM 36.0830 -79.0210 33° Northeast 483 556 35,000  Level FlightAware
09:45PM 36.1620 -78.9570 33° Northeast 483 556 35,000  Level FlightAware
09:46PM 36.2500 -78.8860 33° Northeast 481 554 35,000  Level FlightAware
09:46PM 36.3250 -78.8250 33° Northeast 480 552 35,000  Level FlightAware
09:47PM 36.4110 -78.7550 33° Northeast 486 559 35,000  Level FlightAware
09:48PM 36.4790 -78.7000 33° Northeast 485 558 35,000  Level FlightAware
09:49PM 36.5560 -78.6370 33° Northeast 483 556 35,000  Level FlightAware
09:49PM 36.6260 -78.5800 33° Northeast 483 556 35,000  Level FlightAware
09:50PM 36.7290 -78.4950 33° Northeast 483 556 35,000  Level FlightAware
09:51PM 36.8120 -78.4260 34° Northeast 484 557 35,000  Level FlightAware
09:52PM 36.8880 -78.3640 33° Northeast 484 557 35,000  Level FlightAware
09:52PM 36.9610 -78.3040 33° Northeast 484 557 35,000  Level FlightAware
09:53PM 37.1050 -78.1830 34° Northeast 485 558 35,000  Level FlightAware
09:54PM 37.1860 -78.1160 33° Northeast 486 559 35,000  Level FlightAware
09:55PM 37.2560 -78.0570 34° Northeast 485 558 35,000  Level FlightAware
09:56PM 37.3420 -77.9850 34° Northeast 485 558 35,000  Level FlightAware
09:56PM 37.4200 -77.9200 33° Northeast 485 558 35,000  Level FlightAware
09:57PM 37.4980 -77.8540 34° Northeast 485 558 35,000  Level FlightAware
09:58PM 37.5730 -77.7890 34° Northeast 487 560 35,000  Level FlightAware
09:58PM 37.6500 -77.7190 36° Northeast 487 560 35,000  Level FlightAware
09:59PM 37.7280 -77.6470 36° Northeast 486 559 35,000  Level FlightAware
10:00PM 37.8110 -77.5720 36° Northeast 485 558 35,000  Level FlightAware
10:00PM 37.8391 -77.5460 36° Northeast 484 557 35,000  Level FlightAware ADS-B
10:01PM 37.8941 -77.4963 35° Northeast 484 557 35,000  Level FlightAware ADS-B
10:01PM 37.9492 -77.4461 36° Northeast 483 556 35,000  Level FlightAware ADS-B
10:02PM 38.0041 -77.3959 36° Northeast 483 556 35,000  Level FlightAware ADS-B
10:02PM 38.0590 -77.3457 36° Northeast 483 556 35,000  Level FlightAware ADS-B
10:03PM 38.1165 -77.2926 36° Northeast 484 557 35,000 -120 Level FlightAware ADS-B
10:03PM 38.1748 -77.2388 36° Northeast 485 558 34,900 -600 Descending FlightAware ADS-B
10:04PM 38.2298 -77.1881 36° Northeast 486 559 34,400 -1,020 Descending FlightAware ADS-B
10:04PM 38.2869 -77.1354 36° Northeast 490 564 33,900 -1,020 Descending FlightAware ADS-B
10:05PM 38.3426 -77.0838 36° Northeast 492 566 33,400 -1,020 Descending FlightAware ADS-B
10:05PM 38.3981 -77.0323 36° Northeast 492 566 32,900 -1,020 Descending FlightAware ADS-B
10:06PM 38.4564 -76.9783 36° Northeast 494 568 32,400 -960 Descending FlightAware ADS-B
10:06PM 38.5140 -76.9250 36° Northeast 491 565 31,900 -1,020 Descending FlightAware ADS-B
10:07PM 38.5696 -76.8727 36° Northeast 490 564 31,400 -1,020 Descending FlightAware ADS-B
10:07PM 38.6256 -76.8198 36° Northeast 489 563 30,900 -900 Descending FlightAware ADS-B
10:08PM 38.6810 -76.7677 36° Northeast 491 565 30,500 -900 Descending FlightAware ADS-B
10:08PM 38.7217 -76.7261 39° Northeast 494 568 30,100 -1,020 Descending FlightAware ADS-B
10:09PM 38.7732 -76.6669 42° Northeast 496 571 29,600 -1,020 Descending FlightAware ADS-B
10:09PM 38.8249 -76.6077 42° Northeast 498 573 29,100 -1,020 Descending FlightAware ADS-B
10:10PM 38.8767 -76.5478 42° Northeast 497 572 28,600 -1,020 Descending FlightAware ADS-B
10:10PM 38.9280 -76.4885 42° Northeast 493 567 28,100 -1,020 Descending FlightAware ADS-B
10:11PM 38.9787 -76.4297 42° Northeast 487 560 27,600 -1,020 Descending FlightAware ADS-B
10:11PM 39.0285 -76.3715 42° Northeast 479 551 27,100 -600 Descending FlightAware ADS-B
10:12PM 39.0788 -76.3129 42° Northeast 476 548 27,000 -120 Descending FlightAware ADS-B
10:12PM 39.1279 -76.2558 42° Northeast 475 547 27,000  Level FlightAware ADS-B
10:13PM 39.1775 -76.1981 42° Northeast 474 545 27,000  Level FlightAware ADS-B
10:13PM 39.2287 -76.1384 42° Northeast 473 544 27,000  Level FlightAware ADS-B
10:14PM 39.2783 -76.0804 42° Northeast 474 545 27,000  Level FlightAware ADS-B
10:14PM 39.3273 -76.0229 42° Northeast 477 549 27,000  Level FlightAware ADS-B
10:15PM 39.3764 -75.9652 42° Northeast 480 552 27,000  Level FlightAware ADS-B
10:15PM 39.4255 -75.9070 42° Northeast 481 554 27,000  Level FlightAware ADS-B
10:16PM 39.4751 -75.8483 42° Northeast 481 554 27,000 -720 Level FlightAware ADS-B
10:16PM 39.5247 -75.7894 42° Northeast 474 545 26,300 -1,980 Descending FlightAware ADS-B
10:17PM 39.5743 -75.7304 43° Northeast 466 536 25,000 -2,460 Descending FlightAware ADS-B
10:17PM 39.6220 -75.6739 42° Northeast 458 527 23,800 -2,400 Descending FlightAware ADS-B
10:18PM 39.6686 -75.6185 42° Northeast 449 517 22,600 -2,400 Descending FlightAware ADS-B
10:18PM 39.7142 -75.5638 43° Northeast 439 505 21,400 -2,400 Descending FlightAware ADS-B
10:19PM 39.7592 -75.5095 43° Northeast 429 494 20,200 -2,280 Descending FlightAware ADS-B
10:19PM 39.8028 -75.4568 43° Northeast 417 480 19,100 -2,220 Descending FlightAware ADS-B
10:20PM 39.8447 -75.4061 43° Northeast 408 470 18,000 -2,460 Descending FlightAware ADS-B
10:20PM 39.8865 -75.3555 43° Northeast 408 470 16,600 -2,700 Descending FlightAware ADS-B
10:21PM 39.9278 -75.3056 43° Northeast 403 464 15,300 -2,460 Descending FlightAware ADS-B
10:21PM 39.9704 -75.2539 43° Northeast 397 457 14,100 -2,340 Descending FlightAware ADS-B
10:22PM 40.0111 -75.2043 43° Northeast 388 447 12,900 -2,280 Descending FlightAware ADS-B
10:22PM 40.0507 -75.1561 43° Northeast 379 436 11,800 -1,980 Descending FlightAware ADS-B
10:23PM 40.0898 -75.1082 43° Northeast 366 421 10,900 -1,200 Descending FlightAware ADS-B
10:23PM 40.1255 -75.0645 43° Northeast 336 387 10,600 -840 Descending FlightAware ADS-B
10:24PM 40.1589 -75.0236 43° Northeast 320 368 10,100 -900 Descending FlightAware ADS-B
10:24PM 40.1754 -75.0033 43° Northeast 308 354 9,900 -780 Descending FlightAware ADS-B
10:24PM 40.1912 -74.9839 43° Northeast 299 344 9,700 -600 Descending FlightAware ADS-B
10:25PM 40.2065 -74.9652 43° Northeast 291 335 9,600 -1,020 Descending FlightAware ADS-B
10:25PM 40.2216 -74.9467 43° Northeast 290 334 9,200 -1,380 Descending FlightAware ADS-B
10:25PM 40.2366 -74.9283 43° Northeast 287 330 8,900 -1,440 Descending FlightAware ADS-B
10:25PM 40.2511 -74.9103 43° Northeast 286 329 8,500 -1,740 Descending FlightAware ADS-B
10:25PM 40.2568 -74.9029 45° Northeast 287 330 8,300 -1,920 Descending FlightAware ADS-B
10:26PM 40.2716 -74.8823 47° Northeast 293 337 7,800 -1,320 Descending FlightAware ADS-B
10:26PM 40.2856 -74.8628 47° Northeast 289 333 7,600 -420 Descending FlightAware ADS-B
10:26PM 40.2997 -74.8430 47° Northeast 284 327 7,600  Level FlightAware ADS-B
10:27PM 40.3130 -74.8240 47° Northeast 284 327 7,600 -600 Level FlightAware ADS-B
10:27PM 40.3268 -74.8045 47° Northeast 287 330 7,300 -1,200 Descending FlightAware ADS-B
10:27PM 40.3407 -74.7850 47° Northeast 287 330 7,000 -1,200 Descending FlightAware ADS-B
10:27PM 40.3547 -74.7651 47° Northeast 288 331 6,700 -1,200 Descending FlightAware ADS-B
10:28PM 40.3685 -74.7455 47° Northeast 289 333 6,400 -1,200 Descending FlightAware ADS-B
10:28PM 40.3825 -74.7260 47° Northeast 290 334 6,100 -1,200 Descending FlightAware ADS-B
10:28PM 40.3964 -74.7066 47° Northeast 290 334 5,800 -1,380 Descending FlightAware ADS-B
10:28PM 40.4106 -74.6866 47° Northeast 289 333 5,400 -1,380 Descending FlightAware ADS-B
10:29PM 40.4247 -74.6666 47° Northeast 289 333 5,100 -1,020 Descending FlightAware ADS-B
10:29PM 40.4377 -74.6481 47° Northeast 286 329 4,900 -960 Descending FlightAware ADS-B
10:29PM 40.4415 -74.6433 44° Northeast 286 329 4,800 -1,200 Descending FlightAware ADS-B
10:29PM 40.4474 -74.6368 40° Northeast 283 326 4,700 -1,140 Descending FlightAware ADS-B
10:29PM 40.4637 -74.6204 37° Northeast 278 320 4,400 -1,020 Descending FlightAware ADS-B
10:29PM 40.4790 -74.6053 37° Northeast 271 312 4,200 -840 Descending FlightAware ADS-B
10:30PM 40.4946 -74.5901 37° Northeast 268 308 4,000 -600 Descending FlightAware ADS-B
10:30PM 40.5099 -74.5752 37° Northeast 269 310 3,900 -600 Descending FlightAware ADS-B
10:30PM 40.5264 -74.5591 37° Northeast 270 311 3,700 -600 Descending FlightAware ADS-B
10:31PM 40.5418 -74.5441 37° Northeast 272 313 3,600 -240 Descending FlightAware ADS-B
10:31PM 40.5572 -74.5294 36° Northeast 273 314 3,600  Level FlightAware ADS-B
10:31PM 40.5748 -74.5125 36° Northeast 272 313 3,600  Level FlightAware ADS-B
10:31PM 40.5908 -74.4968 37° Northeast 273 314 3,600  Level FlightAware ADS-B
10:32PM 40.6078 -74.4802 37° Northeast 274 315 3,600  Level FlightAware ADS-B
10:32PM 40.6233 -74.4649 37° Northeast 274 315 3,600  Level FlightAware ADS-B
10:32PM 40.6393 -74.4490 37° Northeast 275 316 3,600  Level FlightAware ADS-B
10:32PM 40.6561 -74.4323 37° Northeast 275 316 3,600  Level FlightAware ADS-B
10:33PM 40.6715 -74.4169 37° Northeast 275 316 3,600  Level FlightAware ADS-B
10:33PM 40.6878 -74.4007 37° Northeast 274 315 3,600  Level FlightAware ADS-B
10:33PM 40.7145 -74.3738 37° Northeast 273 314 3,600  Level FlightAware ADS-B
10:33PM 40.7159 -74.3724 37° Northeast 273 314 3,600  Level FlightAware ADS-B
10:34PM 40.7313 -74.3570 37° Northeast 274 315 3,600  Level FlightAware ADS-B
10:34PM 40.7466 -74.3417 37° Northeast 272 313 3,600  Level FlightAware ADS-B
10:34PM 40.7487 -74.3395 38° Northeast 268 308 3,600  Level FlightAware ADS-B
10:34PM 40.7597 -74.3283 38° Northeast 255 293 3,600  Level FlightAware ADS-B
10:34PM 40.7629 -74.3247 40° Northeast 252 290 3,600  Level FlightAware ADS-B
10:34PM 40.7652 -74.3218 44° Northeast 250 288 3,600  Level FlightAware ADS-B
10:34PM 40.7704 -74.3145 47° Northeast 244 281 3,600  Level FlightAware ADS-B
10:35PM 40.7781 -74.3037 47° Northeast 238 274 3,600  Level FlightAware ADS-B
10:35PM 40.7832 -74.2965 47° Northeast 236 272 3,600  Level FlightAware ADS-B
10:35PM 40.7899 -74.2871 47° Northeast 236 272 3,600  Level FlightAware ADS-B
10:35PM 40.8136 -74.2540 47° Northeast 224 258 3,600  Level FlightAware ADS-B
10:35PM 40.8181 -74.2478 46° Northeast 236 272 3,600  Level FlightAware ADS-B
10:36PM 40.8218 -74.2424 48° Northeast 221 254 3,600 -780 Level FlightAware ADS-B
10:36PM 40.8270 -74.2315 58° Northeast 220 253 3,400 -1,200 Descending FlightAware ADS-B
10:36PM 40.8333 -74.2125 66° East 220 253 3,100 -1,200 Descending FlightAware ADS-B
10:36PM 40.8430 -74.1770 70° East 222 255 2,500 -1,080 Descending FlightAware
10:37PM 40.8448 -74.1455 86° East 218 251 2,200 -960 Descending FlightAware ADS-B
10:37PM 40.8456 -74.1304 86° East 213 245 2,000 -1,200 Descending FlightAware ADS-B
10:37PM 40.8457 -74.1259 88° East 212 244 1,900 -900 Descending FlightAware ADS-B
10:37PM 40.8454 -74.1215 95° East 210 242 1,900  Level FlightAware ADS-B
10:37PM 40.8448 -74.1177 102° East 207 238 1,900  Level FlightAware ADS-B
10:37PM 40.8437 -74.1127 106° East 203 234 1,900 -720 Level FlightAware ADS-B
10:37PM 40.8424 -74.1078 109° East 200 230 1,800 -1,200 Descending FlightAware ADS-B
10:37PM 40.8404 -74.1017 113° Southeast 198 228 1,700 -720 Descending FlightAware ADS-B
10:37PM 40.8387 -74.0982 123° Southeast 195 224 1,700  Level FlightAware ADS-B
10:38PM 40.8366 -74.0952 133° Southeast 193 222 1,700 -900 Level FlightAware ADS-B
10:38PM 40.8345 -74.0927 138° Southeast 190 219 1,600 -780 Descending FlightAware ADS-B
10:38PM 40.8315 -74.0905 151° Southeast 186 214 1,600  Level FlightAware ADS-B
10:38PM 40.8288 -74.0889 156° South 183 211 1,600  Level FlightAware ADS-B
10:38PM 40.8265 -74.0879 162° South 181 208 1,600  Level FlightAware ADS-B
10:38PM 40.8229 -74.0871 170° South 178 205 1,600  Level FlightAware ADS-B
10:38PM 40.8203 -74.0872 182° South 174 200 1,600  Level FlightAware ADS-B
10:38PM 40.8172 -74.0878 188° South 172 198 1,600  Level FlightAware ADS-B
10:38PM 40.8142 -74.0889 196° South 170 196 1,600  Level FlightAware ADS-B
10:38PM 40.7974 -74.0977 202° Southwest 168 193 1,600  Level FlightAware ADS-B
10:39PM 40.7930 -74.1005 206° Southwest 161 185 1,600 -300 Level FlightAware ADS-B
10:39PM 40.7826 -74.1074 207° Southwest 161 185 1,500 -600 Descending FlightAware ADS-B
10:39PM 40.7725 -74.1139 206° Southwest 155 178 1,300 -840 Descending FlightAware ADS-B
10:39PM 40.7594 -74.1223 206° Southwest 139 160 1,000 -840 Descending FlightAware ADS-B